createdAt,value
2023-05-12T00:01:41.057Z,14.70
2023-05-12T00:04:43.569Z,14.70
2023-05-12T00:07:45.589Z,14.80
2023-05-12T00:10:47.663Z,14.70
2023-05-12T00:16:56.714Z,14.60
2023-05-12T00:19:59.117Z,14.50
2023-05-12T00:23:02.158Z,14.50
2023-05-12T00:26:04.154Z,14.70
2023-05-12T00:29:08.749Z,14.60
2023-05-12T00:32:10.876Z,14.60
2023-05-12T00:35:13.002Z,14.40
2023-05-12T00:38:15.599Z,14.50
2023-05-12T00:41:17.721Z,14.60
2023-05-12T00:44:20.383Z,14.60
2023-05-12T00:47:22.755Z,14.50
2023-05-12T00:50:25.408Z,14.40
2023-05-12T00:53:41.107Z,14.50
2023-05-12T00:56:50.269Z,14.50
2023-05-12T00:59:53.141Z,14.50
2023-05-12T01:02:58.299Z,14.60
2023-05-12T01:06:12.395Z,14.60
2023-05-12T01:09:16.653Z,14.50
2023-05-12T01:12:20.173Z,14.50
2023-05-12T01:15:22.508Z,14.50
2023-05-12T01:18:26.843Z,14.50
2023-05-12T01:21:28.862Z,14.60
2023-05-12T01:24:36.644Z,14.40
2023-05-12T01:27:40.926Z,14.40
2023-05-12T01:30:44.525Z,14.30
2023-05-12T01:33:48.478Z,14.30
2023-05-12T01:36:51.404Z,14.40
2023-05-12T01:39:54.674Z,14.20
2023-05-12T01:42:57.031Z,14.30
2023-05-12T01:46:00.449Z,14.40
2023-05-12T01:49:04.011Z,14.40
2023-05-12T01:52:06.177Z,14.40
2023-05-12T01:55:08.409Z,14.20
2023-05-12T01:58:18.175Z,14.20
2023-05-12T02:01:20.326Z,14.20
2023-05-12T02:04:22.523Z,14.20
2023-05-12T02:07:25.446Z,14.20
2023-05-12T02:13:36.718Z,14.40
2023-05-12T02:16:38.859Z,14.40
2023-05-12T02:19:41.488Z,14.30
2023-05-12T02:22:47.619Z,14.30
2023-05-12T02:25:49.745Z,14.30
2023-05-12T02:28:51.827Z,14.30
2023-05-12T02:31:56.886Z,14.30
2023-05-12T02:34:59.161Z,14.40
2023-05-12T02:38:01.695Z,14.20
2023-05-12T02:41:03.885Z,14.10
2023-05-12T02:44:05.905Z,14.10
2023-05-12T02:47:08.344Z,14.10
2023-05-12T02:50:10.635Z,14.30
2023-05-12T02:53:13.474Z,14.20
2023-05-12T02:56:17.200Z,14.20
2023-05-12T02:59:20.621Z,14.20
2023-05-12T03:02:22.985Z,14.20
2023-05-12T03:05:26.390Z,14.20
2023-05-12T03:08:29.350Z,14.20
2023-05-12T03:11:31.568Z,14.30
2023-05-12T03:14:34.069Z,14.20
2023-05-12T03:17:36.630Z,14.20
2023-05-12T03:20:40.385Z,14.20
2023-05-12T03:23:44.953Z,14.20
2023-05-12T03:26:46.990Z,14.20
2023-05-12T03:29:49.504Z,14.30
2023-05-12T03:32:51.773Z,14.10
2023-05-12T03:35:54.334Z,14.20
2023-05-12T03:38:56.698Z,14.20
2023-05-12T03:41:58.691Z,14.10
2023-05-12T03:45:00.895Z,14.20
2023-05-12T03:48:02.972Z,14.20
2023-05-12T03:54:11.909Z,14.10
2023-05-12T03:57:14.030Z,14.10
2023-05-12T04:00:17.014Z,14.30
2023-05-12T04:03:19.749Z,14.30
2023-05-12T04:06:22.241Z,14.20
2023-05-12T04:09:25.028Z,14.20
2023-05-12T04:12:28.175Z,14.30
2023-05-12T04:15:34.266Z,14.20
2023-05-12T04:18:37.698Z,14.30
2023-05-12T04:21:40.057Z,14.20
2023-05-12T04:24:42.589Z,14.20
2023-05-12T04:27:45.990Z,14.20
2023-05-12T04:30:48.561Z,14.20
2023-05-12T04:33:52.456Z,14.20
2023-05-12T04:36:55.668Z,14.30
2023-05-12T04:40:01.655Z,14.30
2023-05-12T04:43:05.860Z,14.10
2023-05-12T04:46:09.794Z,14.20
2023-05-12T04:49:13.918Z,14.20
2023-05-12T04:52:16.918Z,14.20
2023-05-12T04:55:19.298Z,14.10
2023-05-12T04:58:23.896Z,14.20
2023-05-12T05:01:30.410Z,14.10
2023-05-12T05:04:32.724Z,14.30
2023-05-12T05:07:35.216Z,14.30
2023-05-12T05:10:37.568Z,14.40
2023-05-12T05:13:39.673Z,14.30
2023-05-12T05:16:43.229Z,14.40
2023-05-12T05:19:57.279Z,14.40
2023-05-12T05:23:00.987Z,14.50
2023-05-12T05:26:03.183Z,14.50
2023-05-12T05:29:11.113Z,14.40
2023-05-12T05:32:17.184Z,14.50
2023-05-12T05:35:22.229Z,14.50
2023-05-12T05:38:29.434Z,14.50
2023-05-12T05:41:31.680Z,14.60
2023-05-12T05:44:34.251Z,14.50
2023-05-12T05:47:37.260Z,14.50
2023-05-12T05:50:39.959Z,14.70
2023-05-12T05:53:42.373Z,14.80
2023-05-12T05:56:45.734Z,14.80
2023-05-12T05:59:48.034Z,14.70
2023-05-12T06:02:54.022Z,14.70
2023-05-12T06:05:57.064Z,14.70
2023-05-12T06:08:59.846Z,14.50
2023-05-12T06:12:02.044Z,14.60
2023-05-12T06:15:04.278Z,14.70
2023-05-12T06:18:06.385Z,14.90
2023-05-12T06:21:08.690Z,14.80
2023-05-12T06:24:10.721Z,14.90
2023-05-12T06:27:13.220Z,14.90
2023-05-12T06:30:16.286Z,14.90
2023-05-12T06:33:18.838Z,15.00
2023-05-12T06:36:21.157Z,15.00
2023-05-12T06:39:23.408Z,15.00
2023-05-12T06:42:27.964Z,15.10
2023-05-12T06:45:31.555Z,15.20
2023-05-12T06:48:34.826Z,15.20
2023-05-12T06:54:46.627Z,15.10
2023-05-12T06:57:48.702Z,15.40
2023-05-12T07:00:50.817Z,15.50
2023-05-12T07:03:52.918Z,15.50
2023-05-12T07:06:54.986Z,15.40
2023-05-12T07:09:57.015Z,15.50
2023-05-12T07:12:59.233Z,15.40
2023-05-12T07:16:01.349Z,15.50
2023-05-12T07:19:03.406Z,15.50
2023-05-12T07:22:05.615Z,15.70
2023-05-12T07:25:08.037Z,15.80
2023-05-12T07:28:10.134Z,15.90
2023-05-12T07:31:12.273Z,16.00
2023-05-12T07:34:16.941Z,16.00
2023-05-12T07:37:18.939Z,15.90
2023-05-12T07:40:20.982Z,15.80
2023-05-12T07:43:23.044Z,15.90
2023-05-12T07:46:25.115Z,15.90
2023-05-12T07:49:27.172Z,16.00
2023-05-12T07:52:29.146Z,16.10
2023-05-12T07:55:31.347Z,16.30
2023-05-12T07:58:33.338Z,16.20
2023-05-12T08:01:35.440Z,16.10
2023-05-12T08:04:39.669Z,16.30
2023-05-12T08:07:41.793Z,16.10
2023-05-12T08:10:44.459Z,16.10
2023-05-12T08:13:46.502Z,16.00
2023-05-12T08:16:49.032Z,16.00
2023-05-12T08:19:51.246Z,15.90
2023-05-12T08:22:53.295Z,15.90
2023-05-12T08:25:55.726Z,15.90
2023-05-12T08:28:57.677Z,16.10
2023-05-12T08:32:00.184Z,16.10
2023-05-12T08:35:02.211Z,16.40
2023-05-12T08:38:04.258Z,16.70
2023-05-12T08:44:26.919Z,16.80
2023-05-12T08:47:30.403Z,16.70
2023-05-12T08:50:35.681Z,16.70
2023-05-12T08:53:42.312Z,16.90
2023-05-12T08:59:56.299Z,16.90
2023-05-12T09:02:59.880Z,16.80
2023-05-12T09:06:03.081Z,16.80
2023-05-12T09:09:05.150Z,16.90
2023-05-12T09:12:09.019Z,17.10
2023-05-12T09:15:15.568Z,17.50
2023-05-12T09:18:24.074Z,17.40
2023-05-12T09:21:27.439Z,17.70
2023-05-12T09:24:39.622Z,17.40
2023-05-12T09:27:42.591Z,17.30
2023-05-12T09:30:44.797Z,17.30
2023-05-12T09:33:47.030Z,17.40
2023-05-12T09:37:03.872Z,17.30
2023-05-12T09:40:07.933Z,17.40
2023-05-12T09:43:12.542Z,17.10
2023-05-12T09:46:16.739Z,17.00
2023-05-12T09:49:23.688Z,17.00
2023-05-12T09:52:26.026Z,16.80
2023-05-12T09:55:28.235Z,17.00
2023-05-12T09:58:30.536Z,16.90
2023-05-12T10:01:32.907Z,16.90
2023-05-12T10:04:57.643Z,16.90
2023-05-12T10:08:03.380Z,16.90
2023-05-12T10:11:06.450Z,16.90
2023-05-12T10:14:09.204Z,16.80
2023-05-12T10:17:11.857Z,16.90
2023-05-12T10:20:15.953Z,16.90
2023-05-12T10:23:19.694Z,16.90
2023-05-12T10:26:22.590Z,16.40
2023-05-12T10:29:25.565Z,16.40
2023-05-12T10:32:28.209Z,16.40
2023-05-12T10:35:34.292Z,16.10
2023-05-12T10:38:37.451Z,16.10
2023-05-12T10:41:39.547Z,16.10
2023-05-12T10:44:52.517Z,16.10
2023-05-12T10:48:05.864Z,16.10
2023-05-12T10:51:09.673Z,16.20
2023-05-12T11:04:39.797Z,17.00
2023-05-12T11:07:50.695Z,16.90
2023-05-12T11:10:53.836Z,17.50
2023-05-12T11:13:56.252Z,17.70
2023-05-12T11:16:58.296Z,17.80
2023-05-12T11:20:00.316Z,18.10
2023-05-12T11:23:02.370Z,18.70
2023-05-12T11:26:04.533Z,18.90
2023-05-12T11:29:09.198Z,19.10
2023-05-12T11:32:11.898Z,19.00
2023-05-12T11:35:16.158Z,19.00
2023-05-12T11:38:19.466Z,18.70
2023-05-12T11:41:27.917Z,18.50
2023-05-12T11:44:30.824Z,18.30
2023-05-12T11:47:32.815Z,18.30
2023-05-12T11:50:37.150Z,17.80
2023-05-12T11:53:40.788Z,17.80
2023-05-12T11:56:48.980Z,17.90
2023-05-12T11:59:57.588Z,17.80
2023-05-12T12:03:08.162Z,17.70
2023-05-12T12:06:10.541Z,17.50
2023-05-12T12:09:12.470Z,17.40
2023-05-12T12:12:14.670Z,17.40
2023-05-12T12:15:16.818Z,17.40
2023-05-12T12:18:19.006Z,17.40
2023-05-12T12:21:22.425Z,17.50
2023-05-12T12:24:25.658Z,17.50
2023-05-12T12:27:27.862Z,17.70
2023-05-12T12:30:30.029Z,17.90
2023-05-12T12:33:31.979Z,18.00
2023-05-12T12:36:34.025Z,18.20
2023-05-12T12:39:36.543Z,18.40
2023-05-12T12:42:39.449Z,18.70
2023-05-12T12:45:41.487Z,18.50
2023-05-12T12:48:43.477Z,18.70
2023-05-12T12:51:47.110Z,18.60
2023-05-12T12:54:53.437Z,18.90
2023-05-12T12:57:55.626Z,19.20
2023-05-12T13:00:57.651Z,19.30
2023-05-12T13:03:59.770Z,19.40
2023-05-12T13:07:01.800Z,19.40
2023-05-12T13:10:06.646Z,19.80
2023-05-12T13:13:08.751Z,19.90
2023-05-12T13:16:10.761Z,20.00
2023-05-12T13:19:12.760Z,20.00
2023-05-12T13:22:14.758Z,20.00
2023-05-12T13:25:17.391Z,19.70
2023-05-12T13:28:19.418Z,19.80
2023-05-12T13:31:21.569Z,19.50
2023-05-12T13:34:23.623Z,19.30
2023-05-12T13:37:26.380Z,18.50
2023-05-12T13:40:28.428Z,17.80
2023-05-12T13:43:30.493Z,17.50
2023-05-12T13:46:32.662Z,17.30
2023-05-12T13:49:35.249Z,17.40
2023-05-12T13:52:39.878Z,17.40
2023-05-12T13:55:42.118Z,17.60
2023-05-12T13:58:44.496Z,17.60
2023-05-12T14:01:46.865Z,17.80
2023-05-12T14:04:49.037Z,18.10
2023-05-12T14:07:50.960Z,18.40
2023-05-12T14:10:52.907Z,18.60
2023-05-12T14:13:55.916Z,18.90
2023-05-12T14:16:57.993Z,18.80
2023-05-12T14:19:59.976Z,18.90
2023-05-12T14:23:05.442Z,18.90
2023-05-12T14:26:07.475Z,18.50
2023-05-12T14:29:09.509Z,18.40
2023-05-12T14:32:11.502Z,18.40
2023-05-12T14:35:15.917Z,17.90
2023-05-12T14:38:17.993Z,17.70
2023-05-12T14:41:20.214Z,17.60
2023-05-12T14:44:22.334Z,17.40
2023-05-12T14:47:24.450Z,17.50
2023-05-12T14:50:27.092Z,17.40
2023-05-12T14:53:31.767Z,17.40
2023-05-12T14:56:33.860Z,17.40
2023-05-12T14:59:35.869Z,17.30
2023-05-12T15:02:38.957Z,17.40
2023-05-12T15:06:01.672Z,17.50
2023-05-12T15:09:03.677Z,17.50
2023-05-12T15:12:05.999Z,17.70
2023-05-12T15:15:08.830Z,17.70
2023-05-12T15:18:10.944Z,17.70
2023-05-12T15:21:13.011Z,17.70
2023-05-12T15:24:17.330Z,17.80
2023-05-12T15:27:19.373Z,17.70
2023-05-12T15:30:21.728Z,17.70
2023-05-12T15:33:24.887Z,17.70
2023-05-12T15:36:27.036Z,17.70
2023-05-12T15:39:28.944Z,17.70
2023-05-12T15:42:33.327Z,17.80
2023-05-12T15:45:35.929Z,17.80
2023-05-12T15:48:38.069Z,17.80
2023-05-12T15:51:39.995Z,17.60
2023-05-12T15:54:42.240Z,17.60
2023-05-12T15:57:44.303Z,17.80
2023-05-12T16:00:46.316Z,17.90
2023-05-12T16:03:52.231Z,17.90
2023-05-12T16:06:54.538Z,17.90
2023-05-12T16:10:00.504Z,17.90
2023-05-12T16:13:02.674Z,18.00
2023-05-12T16:16:05.220Z,18.00
2023-05-12T16:19:07.267Z,18.10
2023-05-12T16:22:09.424Z,18.10
2023-05-12T16:25:15.222Z,18.00
2023-05-12T16:28:17.239Z,18.00
2023-05-12T16:31:19.319Z,18.00
2023-05-12T16:34:21.439Z,18.00
2023-05-12T16:37:23.449Z,18.00
2023-05-12T16:40:25.764Z,18.00
2023-05-12T16:43:27.895Z,17.90
2023-05-12T16:46:33.533Z,18.00
2023-05-12T16:49:35.482Z,17.90
2023-05-12T16:52:37.468Z,17.90
2023-05-12T16:55:39.684Z,17.90
2023-05-12T16:58:42.271Z,17.80
2023-05-12T17:01:44.380Z,17.80
2023-05-12T17:04:46.666Z,17.90
2023-05-12T17:07:48.841Z,17.90
2023-05-12T17:10:50.960Z,17.90
2023-05-12T17:13:55.525Z,17.80
2023-05-12T17:16:57.604Z,17.90
2023-05-12T17:19:59.655Z,17.70
2023-05-12T17:23:02.361Z,17.60
2023-05-12T17:26:04.652Z,17.50
2023-05-12T17:29:06.942Z,17.60
2023-05-12T17:32:08.964Z,17.60
2023-05-12T17:35:11.287Z,17.50
2023-05-12T17:38:14.319Z,17.40
2023-05-12T17:41:16.448Z,17.20
2023-05-12T17:44:18.458Z,17.30
2023-05-12T17:47:20.499Z,17.20
2023-05-12T17:50:22.634Z,17.10
2023-05-12T17:53:25.346Z,17.00
2023-05-12T17:56:27.263Z,16.90
2023-05-12T17:59:29.303Z,17.00
2023-05-12T18:02:31.597Z,17.00
2023-05-12T18:05:34.951Z,16.80
2023-05-12T18:08:38.977Z,16.70
2023-05-12T18:11:41.156Z,16.70
2023-05-12T18:14:43.299Z,16.60
2023-05-12T18:17:45.858Z,16.50
2023-05-12T18:20:47.973Z,16.60
2023-05-12T18:23:50.044Z,16.50
2023-05-12T18:26:52.170Z,16.50
2023-05-12T18:29:54.301Z,16.50
2023-05-12T18:32:57.626Z,16.50
2023-05-12T18:35:59.631Z,16.40
2023-05-12T18:39:01.722Z,16.30
2023-05-12T18:42:03.893Z,16.30
2023-05-12T18:45:06.668Z,16.30
2023-05-12T18:48:08.751Z,16.30
2023-05-12T18:51:10.907Z,16.40
2023-05-12T18:54:12.833Z,16.40
2023-05-12T18:57:14.906Z,16.40
2023-05-12T19:00:17.245Z,16.40
2023-05-12T19:03:19.289Z,16.30
2023-05-12T19:06:21.273Z,16.30
2023-05-12T19:09:23.316Z,16.30
2023-05-12T19:12:25.829Z,16.20
2023-05-12T19:15:28.416Z,16.20
2023-05-12T19:18:30.484Z,16.20
2023-05-12T19:21:33.414Z,16.20
2023-05-12T19:24:35.370Z,16.20
2023-05-12T19:27:37.517Z,16.30
2023-05-12T19:30:39.584Z,16.20
2023-05-12T19:33:42.581Z,16.10
2023-05-12T19:36:44.645Z,16.10
2023-05-12T19:39:47.222Z,16.10
2023-05-12T19:42:49.386Z,16.10
2023-05-12T19:45:51.568Z,16.10
2023-05-12T19:48:53.666Z,16.00
2023-05-12T19:51:55.768Z,15.90
2023-05-12T19:54:58.023Z,16.00
2023-05-12T19:58:00.224Z,15.90
2023-05-12T20:01:02.152Z,15.90
2023-05-12T20:04:06.841Z,15.80
2023-05-12T20:07:09.051Z,15.80
2023-05-12T20:10:11.490Z,15.70
2023-05-12T20:13:13.482Z,15.70
2023-05-12T20:16:15.568Z,15.60
2023-05-12T20:19:18.040Z,15.70
2023-05-12T20:22:20.112Z,15.50
2023-05-12T20:25:22.337Z,15.50
2023-05-12T20:28:24.624Z,15.50
2023-05-12T20:31:27.391Z,15.40
2023-05-12T20:34:29.434Z,15.30
2023-05-12T20:37:31.571Z,15.30
2023-05-12T20:40:33.480Z,15.30
2023-05-12T20:43:37.830Z,15.40
2023-05-12T20:46:40.085Z,15.40
2023-05-12T20:49:42.475Z,15.40
2023-05-12T20:52:44.584Z,15.40
2023-05-12T20:55:46.639Z,15.30
2023-05-12T20:58:49.843Z,15.40
2023-05-12T21:01:52.050Z,15.40
2023-05-12T21:04:54.637Z,15.40
2023-05-12T21:07:56.687Z,15.40
2023-05-12T21:10:58.832Z,15.30
2023-05-12T21:14:01.195Z,15.20
2023-05-12T21:17:03.377Z,15.30
2023-05-12T21:20:11.399Z,15.30
2023-05-12T21:23:13.442Z,15.20
2023-05-12T21:26:15.752Z,15.40
2023-05-12T21:29:17.691Z,15.20
2023-05-12T21:32:20.068Z,15.20
2023-05-12T21:35:24.670Z,15.20
2023-05-12T21:38:27.489Z,15.10
2023-05-12T21:41:29.587Z,15.10
2023-05-12T21:44:32.121Z,15.10
2023-05-12T21:47:34.598Z,15.00
2023-05-12T21:50:36.937Z,15.00
2023-05-12T21:53:39.109Z,15.00
2023-05-12T21:56:41.150Z,15.00
2023-05-12T21:59:43.643Z,15.00
2023-05-12T22:02:46.612Z,14.90
2023-05-12T22:05:49.014Z,14.90
2023-05-12T22:08:51.137Z,14.90
2023-05-12T22:11:53.232Z,14.90
2023-05-12T22:14:55.668Z,14.90
2023-05-12T22:17:57.828Z,14.90
2023-05-12T22:20:59.878Z,15.00
2023-05-12T22:24:01.963Z,15.00
2023-05-12T22:27:04.140Z,15.10
2023-05-12T22:30:09.063Z,14.90
2023-05-12T22:33:11.267Z,15.10
2023-05-12T22:36:13.310Z,15.00
2023-05-12T22:39:15.409Z,15.00
2023-05-12T22:42:17.910Z,15.00
2023-05-12T22:45:20.191Z,15.00
2023-05-12T22:48:22.824Z,15.10
2023-05-12T22:51:24.870Z,15.10
2023-05-12T22:54:27.429Z,15.10
2023-05-12T22:57:29.416Z,15.10
2023-05-12T23:00:31.733Z,15.00
2023-05-12T23:03:34.295Z,14.90
2023-05-12T23:06:36.375Z,14.90
2023-05-12T23:09:38.794Z,14.80
2023-05-12T23:12:41.022Z,14.70
2023-05-12T23:15:45.588Z,14.70
2023-05-12T23:18:47.768Z,14.70
2023-05-12T23:21:49.963Z,14.70
2023-05-12T23:24:52.711Z,14.60
2023-05-12T23:27:54.936Z,14.60
2023-05-12T23:30:57.061Z,14.60
2023-05-12T23:33:59.137Z,14.40
2023-05-12T23:37:01.196Z,14.40
2023-05-12T23:40:03.475Z,14.40
2023-05-12T23:43:08.448Z,14.30
2023-05-12T23:46:10.661Z,14.30
2023-05-12T23:49:12.741Z,14.20
2023-05-12T23:52:14.871Z,14.30
2023-05-12T23:55:17.201Z,14.20
2023-05-12T23:58:19.424Z,14.30
